Time;durP1;ratioP1;P1;durP2;ratioP2;P2;SDS_P1;SDS_P2;PMS_P1;PMS_P2;Temp;Humidity;BMP_temperature;BMP_pressure;BME280_temperature;BME280_humidity;BME280_pressure;Samples;Min_cycle;Max_cycle;Signal;HPM_P1;HPM_P2
2021/09/22 00:00:20;;;;;;;0.68;0.68;;;12.40;75.40;;;;;;5087538;28;20537;-89
2021/09/22 00:02:46;;;;;;;1.92;0.75;;;12.40;75.50;;;;;;5104148;28;20059;-89
2021/09/22 00:05:13;;;;;;;0.85;0.85;;;12.40;75.50;;;;;;5088573;28;20035;-89
2021/09/22 00:07:40;;;;;;;1.45;0.80;;;12.40;75.40;;;;;;5094180;28;20379;-90
2021/09/22 00:10:09;;;;;;;0.85;0.85;;;12.40;75.50;;;;;;5117000;28;20040;-90
2021/09/22 00:12:35;;;;;;;0.80;0.77;;;12.30;75.40;;;;;;5081709;28;20036;-90
2021/09/22 00:15:02;;;;;;;1.13;0.90;;;12.30;75.50;;;;;;5122134;28;20028;-90
2021/09/22 00:17:28;;;;;;;0.60;0.60;;;12.30;76.00;;;;;;5124222;27;20039;-93
2021/09/22 00:19:54;;;;;;;1.10;0.98;;;12.30;75.40;;;;;;5093475;28;20051;-89
2021/09/22 00:22:20;;;;;;;1.73;0.70;;;12.30;75.30;;;;;;5119108;27;20110;-90
2021/09/22 00:24:46;;;;;;;0.90;0.90;;;12.40;75.30;;;;;;5099168;28;20028;-88
2021/09/22 00:27:12;;;;;;;2.78;1.33;;;12.30;75.20;;;;;;5118366;28;20049;-90
2021/09/22 00:29:38;;;;;;;1.00;1.00;;;12.30;75.30;;;;;;5128512;28;20032;-90
2021/09/22 00:32:05;;;;;;;1.38;1.17;;;12.30;75.30;;;;;;5106374;28;20047;-91
2021/09/22 00:34:31;;;;;;;1.15;1.05;;;12.30;75.20;;;;;;5096050;28;20042;-90
2021/09/22 00:36:58;;;;;;;1.05;0.90;;;12.30;75.20;;;;;;5115463;28;20095;-90
2021/09/22 00:39:24;;;;;;;1.20;1.10;;;12.30;75.10;;;;;;5114457;28;20040;-88
2021/09/22 00:41:50;;;;;;;1.10;1.00;;;12.30;75.10;;;;;;5120513;27;20119;-89
2021/09/22 00:44:17;;;;;;;1.33;1.00;;;12.30;75.10;;;;;;5113420;27;20095;-92
2021/09/22 00:46:43;;;;;;;1.17;1.08;;;12.30;75.00;;;;;;5110980;28;20051;-90
2021/09/22 00:49:09;;;;;;;1.23;1.05;;;12.30;75.10;;;;;;5114608;28;20673;-91
2021/09/22 00:51:41;;;;;;;1.00;1.00;;;12.30;75.10;;;;;;5114358;28;20031;-91
2021/09/22 00:54:07;;;;;;;1.67;1.45;;;12.30;75.10;;;;;;5107664;28;20031;-90
2021/09/22 00:56:34;;;;;;;1.27;1.00;;;12.30;75.20;;;;;;5090935;28;20559;-91
2021/09/22 00:59:00;;;;;;;1.80;1.27;;;12.30;75.20;;;;;;5109484;28;20122;-91
2021/09/22 01:01:29;;;;;;;2.15;1.20;;;12.30;75.10;;;;;;5094599;27;20034;-91
2021/09/22 01:03:55;;;;;;;2.45;1.42;;;12.30;75.10;;;;;;5105388;28;20031;-90
2021/09/22 01:06:21;;;;;;;1.42;1.20;;;12.30;75.10;;;;;;5106180;28;20024;-91
2021/09/22 01:08:47;;;;;;;1.45;1.35;;;12.30;75.00;;;;;;5110369;28;20036;-90
2021/09/22 01:11:13;;;;;;;1.30;1.30;;;12.30;75.00;;;;;;5094261;28;20046;-91
2021/09/22 01:13:39;;;;;;;1.52;1.13;;;12.30;75.00;;;;;;5106059;28;20512;-93
2021/09/22 01:16:06;;;;;;;1.90;1.40;;;12.30;75.00;;;;;;5103386;28;20040;-91
2021/09/22 01:18:33;;;;;;;2.28;1.33;;;12.30;75.10;;;;;;5118686;27;20076;-91
2021/09/22 01:20:59;;;;;;;1.40;1.30;;;12.30;75.10;;;;;;5089766;28;20508;-89
2021/09/22 01:23:27;;;;;;;1.40;1.30;;;12.20;75.00;;;;;;5089220;28;20023;-90
2021/09/22 01:25:58;;;;;;;1.70;1.23;;;12.30;75.00;;;;;;5090739;28;20030;-89
2021/09/22 01:28:28;;;;;;;1.33;1.25;;;12.30;74.90;;;;;;5107219;28;20118;-89
2021/09/22 01:30:59;;;;;;;2.53;1.50;;;12.20;74.90;;;;;;5105822;28;20114;-89
2021/09/22 01:33:26;;;;;;;1.60;1.30;;;12.30;74.90;;;;;;5072036;28;20450;-89
2021/09/22 01:36:00;;;;;;;1.70;1.60;;;12.20;74.90;;;;;;5106517;27;20027;-90
2021/09/22 01:38:29;;;;;;;1.30;1.20;;;12.20;74.90;;;;;;5088326;28;20036;-89
2021/09/22 01:41:15;;;;;;;1.48;1.38;;;12.20;75.20;;;;;;5105226;27;20040;-88
2021/09/22 01:44:01;;;;;;;1.75;1.60;;;12.30;75.00;;;;;;5106427;27;20153;-89
2021/09/22 01:46:46;;;;;;;2.00;1.70;;;12.30;74.90;;;;;;5093608;27;20435;-87
2021/09/22 01:49:24;;;;;;;2.50;2.30;;;12.20;74.90;;;;;;5108613;27;20031;-89
2021/09/22 01:52:01;;;;;;;2.88;1.40;;;12.20;74.80;;;;;;5101356;28;21021;-89
2021/09/22 01:54:30;;;;;;;2.42;1.60;;;12.30;74.80;;;;;;5102655;28;20043;-89
2021/09/22 01:56:57;;;;;;;1.40;1.30;;;12.30;74.90;;;;;;5070453;28;20116;-91
2021/09/22 01:59:25;;;;;;;1.80;1.50;;;12.20;74.80;;;;;;5115691;28;20035;-90
2021/09/22 02:02:20;;;;;;;2.60;1.85;;;12.20;74.80;;;;;;5105887;28;20028;-86
2021/09/22 02:05:09;;;;;;;1.55;1.45;;;12.20;74.80;;;;;;5097901;28;20039;-92
2021/09/22 02:07:36;;;;;;;1.70;1.60;;;12.20;74.70;;;;;;5114782;28;20032;-90
2021/09/22 02:10:06;;;;;;;1.85;1.67;;;12.20;74.70;;;;;;5119336;27;20034;-90
2021/09/22 02:12:33;;;;;;;1.55;1.45;;;12.20;74.80;;;;;;5107637;28;20028;-93
2021/09/22 02:15:05;;;;;;;2.72;1.80;;;12.20;75.40;;;;;;5088959;28;20050;-90
2021/09/22 02:17:34;;;;;;;2.40;1.90;;;12.20;74.90;;;;;;5108128;28;20031;-91
2021/09/22 02:20:03;;;;;;;2.33;1.75;;;12.20;74.90;;;;;;5090826;28;20043;-92
2021/09/22 02:22:37;;;;;;;2.08;1.60;;;12.20;74.90;;;;;;5101659;28;20544;-89
2021/09/22 02:25:13;;;;;;;2.00;1.60;;;12.20;75.00;;;;;;5119131;27;20038;-90
2021/09/22 02:27:40;;;;;;;2.03;1.70;;;12.20;74.90;;;;;;5087785;28;20498;-90
2021/09/22 02:30:14;;;;;;;1.52;1.40;;;12.20;75.00;;;;;;5084323;28;20032;-90
2021/09/22 02:32:43;;;;;;;1.70;1.40;;;12.10;74.90;;;;;;5100821;28;20035;-92
2021/09/22 02:35:10;;;;;;;2.20;1.50;;;12.20;74.90;;;;;;5107328;28;20024;-90
2021/09/22 02:37:56;;;;;;;1.70;1.60;;;12.20;74.90;;;;;;5092602;28;20034;-92
2021/09/22 02:40:39;;;;;;;1.45;1.35;;;12.20;74.80;;;;;;5090987;28;20036;-89
2021/09/22 02:43:05;;;;;;;1.70;1.50;;;12.20;74.70;;;;;;5122641;27;20035;-92
2021/09/22 02:45:32;;;;;;;2.72;1.75;;;12.20;74.70;;;;;;5083976;28;20023;-93
2021/09/22 02:47:58;;;;;;;3.35;1.58;;;12.20;74.70;;;;;;5101709;28;20635;-86
2021/09/22 02:50:24;;;;;;;1.65;1.40;;;12.10;74.70;;;;;;5106786;28;20107;-89
2021/09/22 02:52:51;;;;;;;1.73;1.38;;;12.10;74.70;;;;;;5108999;28;20349;-90
2021/09/22 02:55:17;;;;;;;3.00;1.67;;;12.10;74.60;;;;;;5108113;28;20047;-88
2021/09/22 02:57:45;;;;;;;3.78;1.70;;;12.10;74.60;;;;;;5110976;28;20577;-90
2021/09/22 03:00:12;;;;;;;1.60;1.50;;;12.10;74.60;;;;;;5089276;28;20046;-90
2021/09/22 03:02:39;;;;;;;1.88;1.67;;;12.10;75.20;;;;;;5083792;28;20070;-89
2021/09/22 03:05:06;;;;;;;2.95;1.58;;;12.10;74.60;;;;;;5072138;28;20122;-91
2021/09/22 03:07:32;;;;;;;2.28;1.65;;;12.10;74.60;;;;;;5087372;28;20031;-90
2021/09/22 03:09:58;;;;;;;1.70;1.60;;;12.10;74.60;;;;;;5090602;28;20031;-89
2021/09/22 03:12:24;;;;;;;1.83;1.60;;;12.10;74.50;;;;;;5099812;28;20118;-89
2021/09/22 03:14:51;;;;;;;2.17;1.98;;;12.10;74.50;;;;;;5071389;28;20126;-90
2021/09/22 03:17:18;;;;;;;1.95;1.77;;;12.10;74.50;;;;;;5086907;28;20531;-89
2021/09/22 03:19:44;;;;;;;2.08;1.73;;;12.10;74.50;;;;;;5116796;27;20433;-90
2021/09/22 03:22:12;;;;;;;1.75;1.65;;;12.10;74.30;;;;;;5068954;28;20050;-90
2021/09/22 03:25:02;;;;;;;1.90;1.70;;;12.10;74.30;;;;;;5085107;28;20032;-90
2021/09/22 03:27:28;;;;;;;2.63;2.42;;;12.10;74.30;;;;;;5088139;28;20111;-89
2021/09/22 03:29:54;;;;;;;1.90;1.80;;;12.10;74.30;;;;;;5088022;28;20126;-90
2021/09/22 03:32:20;;;;;;;1.67;1.58;;;12.10;74.30;;;;;;5097811;28;20036;-89
2021/09/22 03:34:46;;;;;;;1.90;1.70;;;12.10;74.30;;;;;;5116502;27;20063;-91
2021/09/22 03:37:12;;;;;;;1.90;1.75;;;12.10;74.30;;;;;;5070790;28;20043;-94
2021/09/22 03:39:38;;;;;;;2.40;2.20;;;12.10;74.30;;;;;;5089735;28;20770;-92
2021/09/22 03:42:04;;;;;;;2.15;1.95;;;12.10;74.30;;;;;;5089490;28;20038;-93
2021/09/22 03:44:30;;;;;;;2.55;2.20;;;12.10;74.40;;;;;;5095951;27;20030;-88
2021/09/22 03:46:56;;;;;;;2.45;2.25;;;12.10;74.40;;;;;;5095371;27;20024;-91
2021/09/22 03:49:23;;;;;;;2.47;2.25;;;12.10;74.40;;;;;;5115454;27;20047;-89
2021/09/22 03:51:49;;;;;;;3.35;2.30;;;12.10;75.00;;;;;;5105277;28;20027;-92
2021/09/22 03:54:16;;;;;;;3.03;2.55;;;12.10;76.90;;;;;;5110176;27;20055;-93
2021/09/22 03:56:42;;;;;;;2.53;2.33;;;12.10;77.10;;;;;;5110706;28;20039;-93
2021/09/22 03:59:09;;;;;;;2.22;2.00;;;12.10;76.70;;;;;;5109067;28;20036;-91
2021/09/22 04:01:35;;;;;;;3.15;2.55;;;12.10;76.30;;;;;;5091935;28;20379;-91
2021/09/22 04:04:01;;;;;;;2.72;2.35;;;12.10;76.00;;;;;;5109146;28;20031;-91
2021/09/22 04:06:27;;;;;;;2.72;2.53;;;12.10;75.70;;;;;;5110760;28;20030;-93
2021/09/22 04:08:52;;;;;;;3.17;2.33;;;12.10;75.60;;;;;;5092489;28;20028;-94
2021/09/22 04:11:19;;;;;;;3.67;2.85;;;12.10;75.40;;;;;;5072681;28;20061;-92
2021/09/22 04:13:46;;;;;;;2.97;2.67;;;12.10;75.30;;;;;;5109010;28;20084;-94
2021/09/22 04:16:12;;;;;;;3.47;2.53;;;12.10;75.20;;;;;;5109656;28;20046;-95
2021/09/22 04:18:39;;;;;;;3.92;2.50;;;12.10;75.00;;;;;;5078362;28;20078;-91
2021/09/22 04:21:06;;;;;;;3.95;2.47;;;12.10;75.00;;;;;;5087884;27;20060;-95
2021/09/22 04:23:32;;;;;;;3.05;2.60;;;12.10;74.90;;;;;;5122397;27;20066;-93
2021/09/22 04:25:58;;;;;;;4.90;2.78;;;12.10;74.70;;;;;;5085943;28;20072;-95
2021/09/22 04:28:24;;;;;;;3.45;3.08;;;12.10;74.80;;;;;;5099347;28;20494;-96
2021/09/22 04:31:09;;;;;;;2.95;2.65;;;12.20;74.80;;;;;;5104862;28;20043;-92
2021/09/22 04:33:56;;;;;;;3.22;2.47;;;12.10;74.70;;;;;;5100042;28;20031;-96
2021/09/22 04:36:43;;;;;;;3.00;2.42;;;12.10;74.80;;;;;;5094879;28;20051;-94
2021/09/22 04:39:28;;;;;;;2.65;2.38;;;12.10;74.70;;;;;;5108582;28;20054;-91
2021/09/22 04:42:13;;;;;;;2.92;2.47;;;12.10;74.70;;;;;;5115647;28;20042;-90
2021/09/22 04:44:57;;;;;;;3.05;2.45;;;12.10;74.70;;;;;;5125631;28;20058;-90
2021/09/22 04:47:42;;;;;;;3.47;2.97;;;12.10;74.70;;;;;;5096206;28;20039;-89
2021/09/22 04:50:28;;;;;;;3.38;2.38;;;12.10;74.80;;;;;;5109506;27;20047;-92
2021/09/22 04:53:13;;;;;;;3.38;2.42;;;12.10;74.80;;;;;;5106793;27;20402;-93
2021/09/22 04:55:57;;;;;;;3.85;2.95;;;12.10;74.80;;;;;;5095613;28;20034;-92
2021/09/22 04:58:42;;;;;;;3.40;2.70;;;12.10;74.80;;;;;;5104639;28;20066;-94
2021/09/22 05:01:28;;;;;;;3.30;2.40;;;12.10;74.80;;;;;;5108871;28;20044;-93
2021/09/22 05:04:12;;;;;;;3.28;2.90;;;12.10;74.70;;;;;;5105702;28;20280;-93
2021/09/22 05:06:57;;;;;;;2.88;2.60;;;12.10;74.80;;;;;;5094323;28;20489;-92
2021/09/22 05:09:41;;;;;;;3.58;2.83;;;12.10;74.80;;;;;;5104619;28;20047;-91
2021/09/22 05:12:26;;;;;;;2.50;2.30;;;12.10;74.90;;;;;;5093566;28;20038;-92
2021/09/22 05:15:11;;;;;;;2.75;2.40;;;12.10;75.00;;;;;;5109142;28;20096;-93
2021/09/22 05:17:55;;;;;;;4.65;2.72;;;12.10;75.20;;;;;;5119040;28;20143;-93
2021/09/22 05:20:40;;;;;;;3.08;2.47;;;12.10;75.10;;;;;;5116442;28;20058;-95
2021/09/22 05:23:25;;;;;;;3.88;2.40;;;12.10;75.10;;;;;;5100695;28;20047;-94
2021/09/22 05:26:09;;;;;;;2.95;2.47;;;12.10;75.10;;;;;;5114595;28;20034;-95
2021/09/22 05:28:54;;;;;;;2.47;2.28;;;12.10;75.10;;;;;;5086022;28;20062;-95
2021/09/22 05:31:39;;;;;;;4.50;2.67;;;12.10;75.00;;;;;;5107270;28;20039;-94
2021/09/22 05:34:23;;;;;;;3.00;2.70;;;12.10;75.20;;;;;;5426021;22;20391;-91
2021/09/22 05:37:10;;;;;;;3.22;2.70;;;12.10;75.60;;;;;;5016833;28;20089;-91
2021/09/22 05:39:59;;;;;;;4.35;2.92;;;12.10;75.70;;;;;;5012543;28;20500;-91
2021/09/22 05:42:39;;;;;;;4.40;2.38;;;12.10;75.80;;;;;;5060867;28;20095;-93
2021/09/22 05:48:06;;;;;;;5.18;3.10;;;12.10;76.90;;;;;;5069049;22;20115;-94
2021/09/22 05:50:58;;;;;;;4.72;2.83;;;12.20;77.50;;;;;;4930523;29;20031;-94
2021/09/22 05:53:44;;;;;;;5.15;2.60;;;12.20;78.00;;;;;;4942259;29;20601;-94
2021/09/22 05:56:29;;;;;;;4.50;3.00;;;12.20;78.30;;;;;;5013818;28;20040;-94
2021/09/22 05:59:13;;;;;;;6.30;3.15;;;12.20;78.60;;;;;;5023453;28;20040;-94
2021/09/22 06:01:59;;;;;;;4.45;2.97;;;12.20;78.80;;;;;;5026519;28;20049;-95
2021/09/22 06:04:43;;;;;;;4.30;2.60;;;12.30;79.10;;;;;;5020706;28;20047;-95
2021/09/22 06:07:28;;;;;;;4.85;2.47;;;12.30;79.20;;;;;;5024828;28;20044;-96
2021/09/22 06:10:17;;;;;;;4.97;2.78;;;12.30;79.30;;;;;;4948816;28;20019;-92
2021/09/22 06:13:02;;;;;;;3.35;2.28;;;12.40;79.30;;;;;;4947860;29;20148;-94
2021/09/22 06:15:28;;;;;;;7.50;2.90;;;12.40;79.40;;;;;;4984406;28;20037;-95
2021/09/22 06:17:58;;;;;;;4.40;2.50;;;12.40;79.40;;;;;;4998737;28;20106;-96
2021/09/22 06:20:24;;;;;;;4.35;2.92;;;12.40;79.90;;;;;;5010995;28;20025;-96
2021/09/22 06:22:51;;;;;;;5.22;2.88;;;12.40;79.20;;;;;;5000210;28;20037;-94
2021/09/22 06:25:17;;;;;;;6.25;2.78;;;12.40;79.40;;;;;;4994945;28;20033;-95
2021/09/22 06:27:44;;;;;;;4.45;2.42;;;12.50;79.30;;;;;;5080040;23;20063;-86
2021/09/22 06:30:11;;;;;;;2.90;2.10;;;12.50;79.30;;;;;;5304836;22;20069;-89
2021/09/22 06:35:35;;;;;;;3.60;2.30;;;12.50;79.20;;;;;;5298271;22;19976;-91
2021/09/22 06:57:29;;;;;;;3.70;2.13;;;12.70;79.40;;;;;;4950484;28;20098;-90
2021/09/22 06:59:55;;;;;;;4.57;2.13;;;12.70;79.30;;;;;;4928601;29;20083;-93
2021/09/22 07:02:21;;;;;;;2.85;1.95;;;12.80;79.40;;;;;;4898771;29;20127;-90
2021/09/22 07:04:47;;;;;;;2.00;1.70;;;12.70;79.40;;;;;;4929059;29;20028;-90
2021/09/22 07:07:13;;;;;;;2.22;1.90;;;12.80;79.40;;;;;;4920432;29;20027;-91
2021/09/22 07:09:39;;;;;;;4.32;2.17;;;12.80;79.40;;;;;;4930411;29;20039;-91
2021/09/22 07:12:05;;;;;;;4.43;2.53;;;12.80;79.10;;;;;;4911432;29;20407;-93
2021/09/22 07:14:31;;;;;;;2.47;2.00;;;12.80;78.90;;;;;;4931747;29;20043;-91
2021/09/22 07:16:57;;;;;;;2.33;1.80;;;12.80;78.70;;;;;;4912419;29;20110;-90
2021/09/22 07:19:23;;;;;;;3.13;2.45;;;12.70;78.50;;;;;;4906773;29;20071;-92
2021/09/22 07:21:50;;;;;;;2.72;1.90;;;12.70;78.40;;;;;;4907089;29;20059;-94
2021/09/22 07:24:16;;;;;;;4.13;2.85;;;12.80;78.30;;;;;;4915714;29;20032;-89
2021/09/22 07:26:42;;;;;;;4.03;2.03;;;12.70;78.30;;;;;;5158586;23;20041;-89
2021/09/22 07:29:08;;;;;;;3.35;2.42;;;12.70;78.20;;;;;;5057378;28;20384;-90
2021/09/22 07:31:35;;;;;;;2.97;2.45;;;12.70;78.20;;;;;;5040179;28;20001;-93
2021/09/22 07:39:25;;;;;;;3.78;2.03;;;12.70;78.20;;;;;;5152156;22;19948;-93
2021/09/22 07:41:51;;;;;;;2.60;2.20;;;12.70;78.20;;;;;;5037731;28;20037;-95
2021/09/22 07:44:17;;;;;;;3.10;2.35;;;12.70;78.20;;;;;;5023475;28;20432;-94
2021/09/22 07:46:43;;;;;;;4.53;2.55;;;12.70;78.20;;;;;;5032744;28;20043;-89
2021/09/22 07:49:09;;;;;;;2.78;1.85;;;12.70;78.20;;;;;;5026536;28;20649;-93
2021/09/22 07:51:35;;;;;;;3.72;2.15;;;12.70;78.20;;;;;;5026250;28;20032;-90
2021/09/22 07:54:01;;;;;;;3.50;2.20;;;12.70;78.20;;;;;;5033690;28;20029;-92
2021/09/22 07:56:27;;;;;;;3.95;2.80;;;12.70;78.30;;;;;;5038942;28;20601;-94
2021/09/22 07:58:53;;;;;;;4.40;2.70;;;12.70;78.30;;;;;;5035880;28;20252;-95
2021/09/22 08:01:19;;;;;;;3.40;2.17;;;12.70;78.30;;;;;;5018174;28;20549;-93
2021/09/22 08:03:45;;;;;;;2.38;2.17;;;12.70;78.30;;;;;;5045632;28;20032;-94
2021/09/22 08:06:11;;;;;;;3.75;2.10;;;12.70;78.30;;;;;;5023142;28;20037;-96
2021/09/22 08:08:36;;;;;;;2.75;2.05;;;12.70;78.30;;;;;;5036738;28;20034;-95
2021/09/22 08:11:02;;;;;;;2.42;1.90;;;12.70;78.30;;;;;;5037313;28;20029;-94
2021/09/22 08:13:28;;;;;;;3.17;2.00;;;12.70;78.30;;;;;;5033513;28;20029;-91
2021/09/22 08:16:10;;;;;;;2.72;2.08;;;12.70;78.20;;;;;;5028432;28;20029;-93
2021/09/22 08:18:38;;;;;;;1.85;1.75;;;12.70;78.30;;;;;;5015150;28;20021;-93
2021/09/22 08:37:16;;;;;;;1.88;1.77;;;12.80;78.20;;;;;;5672888;22;20508;-93
2021/09/22 08:42:18;;;;;;;;;;;12.80;78.20;;;;;;5162050;23;20120;-93
2021/09/22 08:44:44;;;;;;;2.67;2.28;;;12.80;78.30;;;;;;5031636;28;20053;-92
2021/09/22 08:47:10;;;;;;;2.35;2.08;;;12.80;78.10;;;;;;5018659;28;20048;-95
2021/09/22 08:49:36;;;;;;;2.60;2.00;;;12.80;78.20;;;;;;5052647;28;20108;-93
2021/09/22 08:52:04;;;;;;;2.50;1.92;;;12.80;78.20;;;;;;5035863;28;20037;-93
2021/09/22 08:54:29;;;;;;;2.30;2.15;;;12.80;78.20;;;;;;5024479;28;20052;-91
2021/09/22 08:57:00;;;;;;;4.43;2.28;;;12.80;78.20;;;;;;5025557;28;20021;-92
2021/09/22 08:59:27;;;;;;;2.90;2.03;;;12.80;78.10;;;;;;5028695;28;20033;-92
2021/09/22 09:02:17;;;;;;;2.85;2.28;;;12.80;78.10;;;;;;5011958;28;20517;-91
2021/09/22 09:04:45;;;;;;;2.33;2.00;;;12.80;78.20;;;;;;5009954;28;20026;-94
2021/09/22 09:07:12;;;;;;;2.55;2.05;;;12.90;78.20;;;;;;5016266;28;20033;-95
2021/09/22 09:09:44;;;;;;;3.15;1.95;;;12.90;78.10;;;;;;5028348;28;20043;-93
2021/09/22 09:12:17;;;;;;;5.07;2.40;;;12.90;78.20;;;;;;5029194;28;20127;-90
2021/09/22 09:14:56;;;;;;;3.30;2.15;;;12.90;78.30;;;;;;5024731;28;20033;-91
2021/09/22 09:17:43;;;;;;;2.72;1.90;;;12.90;78.40;;;;;;5035890;28;20044;-91
2021/09/22 09:20:15;;;;;;;3.95;2.03;;;12.90;78.40;;;;;;5050080;28;20041;-90
2021/09/22 09:23:16;;;;;;;7.10;2.17;;;12.90;78.50;;;;;;5047951;28;20104;-91
2021/09/22 09:25:52;;;;;;;6.30;2.08;;;12.90;78.50;;;;;;5040917;28;20041;-82
2021/09/22 09:28:19;;;;;;;;;;;13.00;79.10;;;;;;5044103;28;20033;-83
2021/09/22 09:30:55;;;;;;;4.20;2.13;;;13.00;82.40;;;;;;5024619;28;19913;-83
2021/09/22 09:33:53;;;;;;;6.70;2.38;;;13.10;84.10;;;;;;5040941;28;20579;-82
2021/09/22 09:36:34;;;;;;;5.07;2.35;;;13.20;85.30;;;;;;5031129;28;20037;-82
2021/09/22 09:39:13;;;;;;;3.63;2.60;;;13.30;86.20;;;;;;5044681;28;20102;-82
2021/09/22 09:41:48;;;;;;;6.60;2.95;;;13.40;86.60;;;;;;5023694;28;20053;-87
2021/09/22 09:44:21;;;;;;;3.92;2.75;;;13.40;85.50;;;;;;5042618;28;20142;-87
2021/09/22 09:46:49;;;;;;;6.35;3.15;;;13.50;82.70;;;;;;5025129;28;20119;-87
2021/09/22 09:49:18;;;;;;;4.82;2.97;;;13.50;81.00;;;;;;5023806;28;20036;-86
2021/09/22 09:51:49;;;;;;;4.75;3.83;;;13.50;79.70;;;;;;5026867;28;20841;-86
2021/09/22 09:54:24;;;;;;;3.53;3.10;;;13.50;78.80;;;;;;5024822;28;20515;-86
2021/09/22 09:56:52;;;;;;;4.35;3.80;;;13.40;78.30;;;;;;5024789;28;20033;-87
2021/09/22 09:59:19;;;;;;;4.82;3.92;;;13.40;78.00;;;;;;5012616;28;20036;-86
2021/09/22 10:01:51;;;;;;;6.97;4.47;;;13.30;77.60;;;;;;5023396;28;20028;-83
2021/09/22 10:04:19;;;;;;;7.72;4.57;;;13.30;77.60;;;;;;5042453;28;20040;-86
2021/09/22 10:06:46;;;;;;;7.60;5.15;;;13.30;77.50;;;;;;5023039;28;20059;-87
2021/09/22 10:09:13;;;;;;;7.53;4.82;;;13.30;77.80;;;;;;5024646;28;20044;-86
2021/09/22 10:11:41;;;;;;;7.18;4.32;;;13.30;78.00;;;;;;5042171;28;20400;-84
2021/09/22 10:14:08;;;;;;;7.20;3.85;;;13.30;78.30;;;;;;5042565;28;20059;-84
2021/09/22 10:16:36;;;;;;;4.85;3.88;;;13.30;78.60;;;;;;5044694;28;20040;-85
2021/09/22 10:19:03;;;;;;;4.60;3.42;;;13.30;78.70;;;;;;5033743;28;20629;-85
2021/09/22 10:21:33;;;;;;;5.05;3.65;;;13.30;78.90;;;;;;5042195;28;20427;-87
2021/09/22 10:24:00;;;;;;;3.85;3.30;;;13.20;78.70;;;;;;5024576;28;20032;-87
2021/09/22 10:26:27;;;;;;;3.50;2.70;;;13.20;79.10;;;;;;5022278;28;20036;-88
2021/09/22 10:28:56;;;;;;;4.75;3.35;;;13.20;78.90;;;;;;5040164;28;20247;-85
2021/09/22 10:31:27;;;;;;;3.67;3.10;;;13.20;78.80;;;;;;5022588;28;21061;-85
2021/09/22 10:33:54;;;;;;;2.97;2.67;;;13.20;78.70;;;;;;5041497;28;20052;-86
2021/09/22 10:36:40;;;;;;;4.68;3.40;;;13.20;78.90;;;;;;5029303;28;20420;-85
2021/09/22 10:39:09;;;;;;;5.70;3.92;;;13.20;78.90;;;;;;5041875;28;20451;-85
2021/09/22 10:41:43;;;;;;;5.78;3.33;;;13.20;79.10;;;;;;5023607;28;20048;-86
2021/09/22 10:44:35;;;;;;;6.45;4.30;;;13.20;79.30;;;;;;5010873;28;20029;-86
2021/09/22 10:47:26;;;;;;;5.65;3.85;;;13.20;79.40;;;;;;5025122;28;20045;-85
2021/09/22 10:49:53;;;;;;;5.60;3.72;;;13.20;79.20;;;;;;5027160;28;20057;-86
2021/09/22 10:52:30;;;;;;;4.97;3.75;;;13.20;78.90;;;;;;5031772;28;20037;-81
2021/09/22 10:55:09;;;;;;;5.20;3.55;;;13.20;79.30;;;;;;5052366;28;20044;-80
2021/09/22 10:57:35;;;;;;;4.32;3.55;;;13.20;82.70;;;;;;5018220;28;20029;-80
2021/09/22 11:00:37;;;;;;;5.63;3.17;;;13.30;83.60;;;;;;5052443;28;20041;-80
2021/09/22 11:03:03;;;;;;;6.35;3.53;;;13.40;84.10;;;;;;5033479;28;20120;-81
2021/09/22 11:05:29;;;;;;;3.97;3.13;;;13.50;84.20;;;;;;5052304;28;20045;-80
2021/09/22 11:08:02;;;;;;;3.38;2.72;;;13.60;84.50;;;;;;5034736;28;20163;-80
2021/09/22 11:10:35;;;;;;;4.10;3.28;;;13.60;84.20;;;;;;5052651;28;20040;-80
2021/09/22 11:13:21;;;;;;;6.00;3.60;;;13.70;83.80;;;;;;5049105;28;20635;-80
2021/09/22 11:15:48;;;;;;;5.20;2.90;;;13.80;83.60;;;;;;5050959;28;20515;-80
2021/09/22 11:18:15;;;;;;;3.33;2.80;;;13.80;83.40;;;;;;5033258;28;20076;-80
2021/09/22 11:20:41;;;;;;;3.10;2.80;;;13.90;83.10;;;;;;5051423;28;20033;-80
2021/09/22 11:23:08;;;;;;;4.78;3.20;;;14.00;82.70;;;;;;5042870;28;20032;-80
2021/09/22 11:25:34;;;;;;;3.70;2.75;;;14.00;82.60;;;;;;5031681;28;20064;-79
2021/09/22 11:28:07;;;;;;;3.00;2.58;;;14.00;82.50;;;;;;5039917;28;20033;-81
2021/09/22 11:30:34;;;;;;;3.85;2.72;;;14.00;82.30;;;;;;5040657;28;20086;-80
2021/09/22 11:32:59;;;;;;;3.72;2.60;;;14.10;82.20;;;;;;5040791;28;20105;-81
2021/09/22 11:35:29;;;;;;;2.60;2.40;;;14.10;82.00;;;;;;5021501;28;20160;-80
2021/09/22 11:37:58;;;;;;;4.43;2.38;;;14.10;81.90;;;;;;5045632;28;20033;-81
2021/09/22 11:40:36;;;;;;;3.85;3.00;;;14.20;81.80;;;;;;5039312;28;21046;-81
2021/09/22 11:43:17;;;;;;;3.55;3.08;;;14.20;81.60;;;;;;5038600;28;20055;-81
2021/09/22 11:45:58;;;;;;;3.30;2.40;;;14.20;81.40;;;;;;5039547;28;20035;-80
2021/09/22 11:49:01;;;;;;;3.28;2.75;;;14.30;81.30;;;;;;5040374;28;20065;-80
2021/09/22 11:51:27;;;;;;;3.35;2.97;;;14.30;81.10;;;;;;5040079;28;20033;-80
2021/09/22 11:53:53;;;;;;;2.88;2.45;;;14.30;80.90;;;;;;5039869;28;20044;-88
2021/09/22 11:56:21;;;;;;;3.83;3.42;;;14.30;80.70;;;;;;5040467;28;20040;-88
2021/09/22 11:58:46;;;;;;;4.55;2.97;;;14.40;79.90;;;;;;5032183;28;20103;-86
2021/09/22 12:01:12;;;;;;;2.70;2.50;;;14.40;78.30;;;;;;5022543;28;20439;-87
2021/09/22 12:03:39;;;;;;;3.50;2.70;;;14.40;77.50;;;;;;5026277;28;20025;-87
2021/09/22 12:06:10;;;;;;;3.67;2.80;;;14.30;76.60;;;;;;5051742;28;20041;-86
2021/09/22 12:08:38;;;;;;;4.70;3.13;;;14.30;76.10;;;;;;5044682;28;20036;-86
2021/09/22 12:11:05;;;;;;;3.67;3.15;;;14.20;75.80;;;;;;5028656;28;20029;-86
2021/09/22 12:13:40;;;;;;;3.80;3.35;;;14.20;75.70;;;;;;5007492;28;20061;-87
2021/09/22 12:16:06;;;;;;;3.20;2.90;;;14.10;75.50;;;;;;5025343;28;20491;-88
2021/09/22 12:18:32;;;;;;;2.67;2.47;;;14.10;75.50;;;;;;5035538;28;20049;-86
2021/09/22 12:21:00;;;;;;;2.50;2.30;;;14.10;75.50;;;;;;5020377;28;20033;-87
2021/09/22 12:23:29;;;;;;;2.38;2.08;;;14.00;75.00;;;;;;5043503;28;20025;-86
2021/09/22 12:26:13;;;;;;;2.88;2.30;;;14.00;75.00;;;;;;5042380;28;20021;-87
2021/09/22 12:28:40;;;;;;;2.63;2.42;;;13.90;74.90;;;;;;5008198;28;20028;-86
2021/09/22 12:31:21;;;;;;;2.72;2.10;;;13.90;74.60;;;;;;5044058;28;20029;-86
2021/09/22 12:33:48;;;;;;;2.72;1.90;;;13.80;74.60;;;;;;5024142;28;20028;-86
2021/09/22 12:36:19;;;;;;;3.47;2.35;;;13.80;74.60;;;;;;5025566;28;20044;-87
2021/09/22 12:38:53;;;;;;;3.65;2.60;;;13.80;75.00;;;;;;5009614;28;20035;-87
2021/09/22 12:41:21;;;;;;;4.35;2.13;;;13.70;75.10;;;;;;5043816;28;20053;-87
2021/09/22 12:43:57;;;;;;;3.00;2.40;;;13.70;75.30;;;;;;5043828;28;20088;-88
2021/09/22 12:46:23;;;;;;;5.57;2.90;;;13.70;75.50;;;;;;5042045;28;20037;-87
2021/09/22 12:48:49;;;;;;;3.38;2.70;;;13.70;75.50;;;;;;5033525;28;20527;-89
2021/09/22 12:51:19;;;;;;;3.85;2.60;;;13.70;75.50;;;;;;5034004;28;20491;-90
2021/09/22 12:53:49;;;;;;;4.03;2.70;;;13.70;75.50;;;;;;5030620;28;20033;-92
2021/09/22 12:56:17;;;;;;;2.45;2.25;;;13.60;75.50;;;;;;5042634;28;20048;-89
2021/09/22 12:58:44;;;;;;;3.15;2.53;;;13.60;75.50;;;;;;5043537;28;20040;-89
2021/09/22 13:01:12;;;;;;;2.92;2.63;;;13.60;75.60;;;;;;5038376;28;20044;-90
2021/09/22 13:03:50;;;;;;;4.13;2.85;;;13.50;75.40;;;;;;5028284;28;20025;-89
2021/09/22 13:06:28;;;;;;;4.55;2.63;;;13.50;75.40;;;;;;5035948;28;20039;-89
2021/09/22 13:08:57;;;;;;;4.28;3.47;;;13.50;75.40;;;;;;5029842;28;20148;-89
2021/09/22 13:11:46;;;;;;;3.63;3.13;;;13.50;75.50;;;;;;5032573;28;20029;-89
2021/09/22 13:14:22;;;;;;;6.80;4.25;;;13.50;75.50;;;;;;5025921;28;20038;-87
2021/09/22 13:16:53;;;;;;;;;;;13.40;75.40;;;;;;5027380;28;20032;-89
2021/09/22 13:19:22;;;;;;;5.18;3.72;;;13.50;75.50;;;;;;5026875;28;19916;-89
2021/09/22 13:21:49;;;;;;;4.80;3.65;;;13.40;75.50;;;;;;5025757;28;20024;-89
2021/09/22 13:24:17;;;;;;;4.22;3.55;;;13.40;75.60;;;;;;5013345;28;20035;-88
2021/09/22 13:26:45;;;;;;;4.90;3.97;;;13.40;75.70;;;;;;5012054;28;20053;-88
2021/09/22 13:29:15;;;;;;;5.43;3.70;;;13.30;75.70;;;;;;5044517;28;20095;-88
2021/09/22 13:31:52;;;;;;;6.03;3.88;;;13.30;75.70;;;;;;5023954;28;20039;-88
2021/09/22 13:34:18;;;;;;;5.18;3.85;;;13.30;75.80;;;;;;5013828;28;20036;-88
2021/09/22 13:36:45;;;;;;;6.32;3.92;;;13.30;75.90;;;;;;5023655;28;20132;-88
2021/09/22 13:39:13;;;;;;;4.78;3.42;;;13.30;75.90;;;;;;5025194;28;20041;-88
2021/09/22 13:41:40;;;;;;;3.63;3.15;;;13.30;76.10;;;;;;5011713;28;20049;-88
2021/09/22 13:44:08;;;;;;;6.18;3.75;;;13.30;76.10;;;;;;5011013;28;20474;-88
2021/09/22 13:46:35;;;;;;;5.50;3.50;;;13.20;76.10;;;;;;5024574;28;20051;-87
2021/09/22 13:49:02;;;;;;;4.85;2.90;;;13.20;76.10;;;;;;5023610;28;20040;-88
2021/09/22 13:51:28;;;;;;;4.35;3.25;;;13.20;76.10;;;;;;5023297;28;20033;-88
2021/09/22 13:53:54;;;;;;;3.10;2.80;;;13.20;76.70;;;;;;5020761;28;20029;-89
2021/09/22 13:56:21;;;;;;;3.92;3.15;;;13.20;76.20;;;;;;5024482;28;20047;-89
2021/09/22 13:58:47;;;;;;;4.00;2.88;;;13.20;76.20;;;;;;5021971;28;20128;-87